sensor_id;sensor_type;location;lat;lon;timestamp;P1;durP1;ratioP1;P2;durP2;ratioP2
20734;SDS011;10528;52.124;5.196;2024-01-15T00:00:59;16.08;;;7.03;;
20734;SDS011;10528;52.124;5.196;2024-01-15T00:03:26;9.48;;;3.60;;
20734;SDS011;10528;52.124;5.196;2024-01-15T00:05:53;5.97;;;2.03;;
20734;SDS011;10528;52.124;5.196;2024-01-15T00:08:20;12.95;;;2.60;;
20734;SDS011;10528;52.124;5.196;2024-01-15T00:10:47;6.72;;;3.00;;
20734;SDS011;10528;52.124;5.196;2024-01-15T00:13:14;9.20;;;3.95;;
20734;SDS011;10528;52.124;5.196;2024-01-15T00:15:41;15.50;;;4.25;;
20734;SDS011;10528;52.124;5.196;2024-01-15T00:18:08;12.10;;;4.00;;
20734;SDS011;10528;52.124;5.196;2024-01-15T00:20:35;10.93;;;4.20;;
20734;SDS011;10528;52.124;5.196;2024-01-15T00:23:02;12.63;;;3.83;;
20734;SDS011;10528;52.124;5.196;2024-01-15T00:25:29;12.70;;;4.43;;
20734;SDS011;10528;52.124;5.196;2024-01-15T00:27:56;9.15;;;3.60;;
20734;SDS011;10528;52.124;5.196;2024-01-15T00:30:23;10.40;;;3.90;;
20734;SDS011;10528;52.124;5.196;2024-01-15T00:32:50;13.45;;;6.10;;
20734;SDS011;10528;52.124;5.196;2024-01-15T00:35:17;11.00;;;4.15;;
20734;SDS011;10528;52.124;5.196;2024-01-15T00:37:44;13.63;;;5.20;;
20734;SDS011;10528;52.124;5.196;2024-01-15T00:40:11;12.63;;;4.88;;
20734;SDS011;10528;52.124;5.196;2024-01-15T00:42:38;15.20;;;8.05;;
20734;SDS011;10528;52.124;5.196;2024-01-15T00:45:05;20.75;;;8.20;;
20734;SDS011;10528;52.124;5.196;2024-01-15T00:47:34;20.38;;;5.38;;
20734;SDS011;10528;52.124;5.196;2024-01-15T00:50:01;11.20;;;3.40;;
20734;SDS011;10528;52.124;5.196;2024-01-15T00:52:28;9.57;;;2.72;;
20734;SDS011;10528;52.124;5.196;2024-01-15T00:54:55;8.32;;;2.13;;
20734;SDS011;10528;52.124;5.196;2024-01-15T00:57:22;7.70;;;2.17;;
20734;SDS011;10528;52.124;5.196;2024-01-15T00:59:49;8.40;;;2.03;;
20734;SDS011;10528;52.124;5.196;2024-01-15T01:02:16;6.68;;;1.48;;
20734;SDS011;10528;52.124;5.196;2024-01-15T01:04:43;11.02;;;1.65;;
20734;SDS011;10528;52.124;5.196;2024-01-15T01:07:10;6.43;;;1.77;;
20734;SDS011;10528;52.124;5.196;2024-01-15T01:09:36;11.68;;;1.70;;
20734;SDS011;10528;52.124;5.196;2024-01-15T01:12:03;8.30;;;1.48;;
20734;SDS011;10528;52.124;5.196;2024-01-15T01:14:31;7.45;;;1.52;;
20734;SDS011;10528;52.124;5.196;2024-01-15T01:16:58;5.95;;;1.17;;
20734;SDS011;10528;52.124;5.196;2024-01-15T01:19:25;6.22;;;1.80;;
20734;SDS011;10528;52.124;5.196;2024-01-15T01:21:53;10.13;;;1.60;;
20734;SDS011;10528;52.124;5.196;2024-01-15T01:24:19;9.75;;;1.77;;
20734;SDS011;10528;52.124;5.196;2024-01-15T01:26:46;8.65;;;1.80;;
20734;SDS011;10528;52.124;5.196;2024-01-15T01:29:13;11.18;;;1.52;;
20734;SDS011;10528;52.124;5.196;2024-01-15T01:31:43;10.57;;;2.03;;
20734;SDS011;10528;52.124;5.196;2024-01-15T01:34:13;5.88;;;1.27;;
20734;SDS011;10528;52.124;5.196;2024-01-15T01:36:42;8.05;;;1.30;;
20734;SDS011;10528;52.124;5.196;2024-01-15T01:39:09;6.25;;;1.20;;
20734;SDS011;10528;52.124;5.196;2024-01-15T01:41:37;8.40;;;1.50;;
20734;SDS011;10528;52.124;5.196;2024-01-15T01:44:05;7.50;;;1.75;;
20734;SDS011;10528;52.124;5.196;2024-01-15T01:46:33;5.72;;;1.20;;
20734;SDS011;10528;52.124;5.196;2024-01-15T01:49:06;3.67;;;0.70;;
20734;SDS011;10528;52.124;5.196;2024-01-15T01:51:35;12.25;;;3.08;;
20734;SDS011;10528;52.124;5.196;2024-01-15T01:54:06;8.77;;;2.25;;
20734;SDS011;10528;52.124;5.196;2024-01-15T01:56:35;4.90;;;1.90;;
20734;SDS011;10528;52.124;5.196;2024-01-15T01:59:03;11.00;;;2.10;;
20734;SDS011;10528;52.124;5.196;2024-01-15T02:01:32;6.47;;;1.35;;
20734;SDS011;10528;52.124;5.196;2024-01-15T02:03:59;7.88;;;1.58;;
20734;SDS011;10528;52.124;5.196;2024-01-15T02:06:27;10.32;;;1.65;;
20734;SDS011;10528;52.124;5.196;2024-01-15T02:08:54;5.40;;;1.00;;
20734;SDS011;10528;52.124;5.196;2024-01-15T02:11:22;8.23;;;1.30;;
20734;SDS011;10528;52.124;5.196;2024-01-15T02:13:49;3.85;;;1.42;;
20734;SDS011;10528;52.124;5.196;2024-01-15T02:16:16;10.77;;;1.90;;
20734;SDS011;10528;52.124;5.196;2024-01-15T02:18:45;5.28;;;0.75;;
20734;SDS011;10528;52.124;5.196;2024-01-15T02:21:13;7.13;;;0.82;;
20734;SDS011;10528;52.124;5.196;2024-01-15T02:23:40;3.85;;;0.90;;
20734;SDS011;10528;52.124;5.196;2024-01-15T02:26:07;3.65;;;0.55;;
20734;SDS011;10528;52.124;5.196;2024-01-15T02:28:35;1.40;;;0.43;;
20734;SDS011;10528;52.124;5.196;2024-01-15T02:31:02;2.70;;;0.70;;
20734;SDS011;10528;52.124;5.196;2024-01-15T02:33:29;2.35;;;0.60;;
20734;SDS011;10528;52.124;5.196;2024-01-15T02:35:57;1.77;;;0.70;;
20734;SDS011;10528;52.124;5.196;2024-01-15T02:38:23;5.50;;;0.80;;
20734;SDS011;10528;52.124;5.196;2024-01-15T02:40:50;2.33;;;0.60;;
20734;SDS011;10528;52.124;5.196;2024-01-15T02:43:17;8.63;;;0.85;;
20734;SDS011;10528;52.124;5.196;2024-01-15T02:45:45;5.40;;;0.93;;
20734;SDS011;10528;52.124;5.196;2024-01-15T02:48:15;5.20;;;1.05;;
20734;SDS011;10528;52.124;5.196;2024-01-15T02:50:42;5.55;;;0.80;;
20734;SDS011;10528;52.124;5.196;2024-01-15T02:53:09;4.47;;;1.00;;
20734;SDS011;10528;52.124;5.196;2024-01-15T02:55:36;3.42;;;0.90;;
20734;SDS011;10528;52.124;5.196;2024-01-15T02:58:03;5.03;;;0.82;;
20734;SDS011;10528;52.124;5.196;2024-01-15T03:00:30;5.35;;;1.13;;
20734;SDS011;10528;52.124;5.196;2024-01-15T03:02:57;5.63;;;1.08;;
20734;SDS011;10528;52.124;5.196;2024-01-15T03:05:24;4.45;;;0.70;;
20734;SDS011;10528;52.124;5.196;2024-01-15T03:07:51;2.60;;;0.80;;
20734;SDS011;10528;52.124;5.196;2024-01-15T03:10:18;7.85;;;1.30;;
20734;SDS011;10528;52.124;5.196;2024-01-15T03:12:45;8.48;;;1.10;;
20734;SDS011;10528;52.124;5.196;2024-01-15T03:15:13;6.38;;;0.93;;
20734;SDS011;10528;52.124;5.196;2024-01-15T03:17:41;3.83;;;0.90;;
20734;SDS011;10528;52.124;5.196;2024-01-15T03:20:09;5.32;;;1.25;;
20734;SDS011;10528;52.124;5.196;2024-01-15T03:22:37;5.63;;;1.35;;
20734;SDS011;10528;52.124;5.196;2024-01-15T03:25:04;15.18;;;3.72;;
20734;SDS011;10528;52.124;5.196;2024-01-15T03:27:32;11.70;;;4.55;;
20734;SDS011;10528;52.124;5.196;2024-01-15T03:29:59;12.98;;;4.32;;
20734;SDS011;10528;52.124;5.196;2024-01-15T03:32:27;14.65;;;5.63;;
20734;SDS011;10528;52.124;5.196;2024-01-15T03:34:53;10.65;;;4.60;;
20734;SDS011;10528;52.124;5.196;2024-01-15T03:37:20;9.02;;;3.33;;
20734;SDS011;10528;52.124;5.196;2024-01-15T03:39:47;7.82;;;2.38;;
20734;SDS011;10528;52.124;5.196;2024-01-15T03:42:14;8.82;;;2.35;;
20734;SDS011;10528;52.124;5.196;2024-01-15T03:44:42;7.82;;;1.67;;
20734;SDS011;10528;52.124;5.196;2024-01-15T03:47:09;6.80;;;2.58;;
20734;SDS011;10528;52.124;5.196;2024-01-15T03:49:36;9.15;;;2.60;;
20734;SDS011;10528;52.124;5.196;2024-01-15T03:52:03;7.22;;;1.92;;
20734;SDS011;10528;52.124;5.196;2024-01-15T03:54:30;11.48;;;3.20;;
20734;SDS011;10528;52.124;5.196;2024-01-15T03:56:57;17.73;;;4.88;;
20734;SDS011;10528;52.124;5.196;2024-01-15T03:59:24;25.75;;;9.10;;
20734;SDS011;10528;52.124;5.196;2024-01-15T04:01:52;19.77;;;5.60;;
20734;SDS011;10528;52.124;5.196;2024-01-15T04:04:19;10.88;;;4.00;;
20734;SDS011;10528;52.124;5.196;2024-01-15T04:06:47;8.90;;;1.85;;
20734;SDS011;10528;52.124;5.196;2024-01-15T04:09:14;9.40;;;2.47;;
20734;SDS011;10528;52.124;5.196;2024-01-15T04:11:41;5.65;;;1.58;;
20734;SDS011;10528;52.124;5.196;2024-01-15T04:14:08;3.72;;;1.30;;
20734;SDS011;10528;52.124;5.196;2024-01-15T04:16:36;8.18;;;2.30;;
20734;SDS011;10528;52.124;5.196;2024-01-15T04:19:04;8.75;;;2.80;;
20734;SDS011;10528;52.124;5.196;2024-01-15T04:21:31;12.55;;;3.83;;
20734;SDS011;10528;52.124;5.196;2024-01-15T04:23:58;11.93;;;3.67;;
20734;SDS011;10528;52.124;5.196;2024-01-15T04:26:25;6.13;;;2.15;;
20734;SDS011;10528;52.124;5.196;2024-01-15T04:28:52;14.18;;;3.80;;
20734;SDS011;10528;52.124;5.196;2024-01-15T04:31:22;6.63;;;2.38;;
20734;SDS011;10528;52.124;5.196;2024-01-15T04:33:51;7.13;;;3.28;;
20734;SDS011;10528;52.124;5.196;2024-01-15T04:36:18;8.55;;;4.05;;
20734;SDS011;10528;52.124;5.196;2024-01-15T04:38:45;12.45;;;5.47;;
20734;SDS011;10528;52.124;5.196;2024-01-15T04:41:12;12.05;;;5.70;;
20734;SDS011;10528;52.124;5.196;2024-01-15T04:43:40;9.57;;;4.07;;
20734;SDS011;10528;52.124;5.196;2024-01-15T04:46:07;10.52;;;4.53;;
20734;SDS011;10528;52.124;5.196;2024-01-15T04:48:34;12.95;;;5.15;;
20734;SDS011;10528;52.124;5.196;2024-01-15T04:51:04;13.77;;;4.90;;
20734;SDS011;10528;52.124;5.196;2024-01-15T04:53:33;9.57;;;3.10;;
20734;SDS011;10528;52.124;5.196;2024-01-15T04:56:01;7.20;;;2.55;;
20734;SDS011;10528;52.124;5.196;2024-01-15T04:58:28;6.47;;;2.10;;
20734;SDS011;10528;52.124;5.196;2024-01-15T05:00:55;8.20;;;1.70;;
20734;SDS011;10528;52.124;5.196;2024-01-15T05:03:22;7.05;;;2.40;;
20734;SDS011;10528;52.124;5.196;2024-01-15T05:05:50;7.60;;;1.70;;
20734;SDS011;10528;52.124;5.196;2024-01-15T05:08:17;5.65;;;1.20;;
20734;SDS011;10528;52.124;5.196;2024-01-15T05:10:44;6.78;;;2.17;;
20734;SDS011;10528;52.124;5.196;2024-01-15T05:13:11;7.57;;;2.53;;
20734;SDS011;10528;52.124;5.196;2024-01-15T05:15:38;5.25;;;1.50;;
20734;SDS011;10528;52.124;5.196;2024-01-15T05:18:05;7.85;;;2.55;;
20734;SDS011;10528;52.124;5.196;2024-01-15T05:20:33;6.53;;;2.00;;
20734;SDS011;10528;52.124;5.196;2024-01-15T05:23:00;6.88;;;2.80;;
20734;SDS011;10528;52.124;5.196;2024-01-15T05:25:27;8.88;;;3.75;;
20734;SDS011;10528;52.124;5.196;2024-01-15T05:27:54;10.93;;;3.80;;
20734;SDS011;10528;52.124;5.196;2024-01-15T05:30:21;7.72;;;2.90;;
20734;SDS011;10528;52.124;5.196;2024-01-15T05:32:48;7.80;;;3.05;;
20734;SDS011;10528;52.124;5.196;2024-01-15T05:35:15;12.93;;;4.03;;
20734;SDS011;10528;52.124;5.196;2024-01-15T05:37:43;7.63;;;3.38;;
20734;SDS011;10528;52.124;5.196;2024-01-15T05:40:12;12.55;;;4.47;;
20734;SDS011;10528;52.124;5.196;2024-01-15T05:42:39;7.97;;;3.45;;
20734;SDS011;10528;52.124;5.196;2024-01-15T05:45:08;9.23;;;3.97;;
20734;SDS011;10528;52.124;5.196;2024-01-15T05:47:35;7.72;;;3.40;;
20734;SDS011;10528;52.124;5.196;2024-01-15T05:50:02;4.45;;;2.17;;
20734;SDS011;10528;52.124;5.196;2024-01-15T05:52:29;4.35;;;2.17;;
20734;SDS011;10528;52.124;5.196;2024-01-15T05:54:56;8.82;;;3.00;;
20734;SDS011;10528;52.124;5.196;2024-01-15T05:57:23;6.38;;;2.20;;
20734;SDS011;10528;52.124;5.196;2024-01-15T05:59:50;6.00;;;2.25;;
20734;SDS011;10528;52.124;5.196;2024-01-15T06:02:17;7.93;;;2.35;;
20734;SDS011;10528;52.124;5.196;2024-01-15T06:04:44;4.22;;;1.63;;
20734;SDS011;10528;52.124;5.196;2024-01-15T06:07:11;5.43;;;1.42;;
20734;SDS011;10528;52.124;5.196;2024-01-15T06:09:38;6.65;;;2.50;;
20734;SDS011;10528;52.124;5.196;2024-01-15T06:12:06;8.25;;;3.10;;
20734;SDS011;10528;52.124;5.196;2024-01-15T06:14:34;5.35;;;2.20;;
20734;SDS011;10528;52.124;5.196;2024-01-15T06:17:01;5.50;;;1.52;;
20734;SDS011;10528;52.124;5.196;2024-01-15T06:19:28;4.57;;;1.73;;
20734;SDS011;10528;52.124;5.196;2024-01-15T06:21:55;4.82;;;1.88;;
20734;SDS011;10528;52.124;5.196;2024-01-15T06:24:22;5.97;;;2.80;;
20734;SDS011;10528;52.124;5.196;2024-01-15T06:26:49;9.30;;;3.92;;
20734;SDS011;10528;52.124;5.196;2024-01-15T06:29:16;5.90;;;2.35;;
20734;SDS011;10528;52.124;5.196;2024-01-15T06:31:44;6.55;;;2.10;;
20734;SDS011;10528;52.124;5.196;2024-01-15T06:34:11;3.95;;;1.70;;
20734;SDS011;10528;52.124;5.196;2024-01-15T06:36:38;6.00;;;1.90;;
20734;SDS011;10528;52.124;5.196;2024-01-15T06:39:05;8.02;;;3.70;;
20734;SDS011;10528;52.124;5.196;2024-01-15T06:41:32;6.57;;;2.60;;
20734;SDS011;10528;52.124;5.196;2024-01-15T06:43:59;6.38;;;2.75;;
20734;SDS011;10528;52.124;5.196;2024-01-15T06:46:26;8.18;;;3.50;;
20734;SDS011;10528;52.124;5.196;2024-01-15T06:48:53;7.25;;;3.03;;
20734;SDS011;10528;52.124;5.196;2024-01-15T06:51:20;9.15;;;2.65;;
20734;SDS011;10528;52.124;5.196;2024-01-15T06:53:47;4.85;;;2.13;;
20734;SDS011;10528;52.124;5.196;2024-01-15T06:56:14;3.67;;;1.60;;
20734;SDS011;10528;52.124;5.196;2024-01-15T06:58:41;2.13;;;0.85;;
20734;SDS011;10528;52.124;5.196;2024-01-15T07:01:08;5.72;;;1.65;;
20734;SDS011;10528;52.124;5.196;2024-01-15T07:03:35;3.90;;;1.02;;
20734;SDS011;10528;52.124;5.196;2024-01-15T07:06:02;5.03;;;1.17;;
20734;SDS011;10528;52.124;5.196;2024-01-15T07:08:30;7.93;;;3.00;;
20734;SDS011;10528;52.124;5.196;2024-01-15T07:10:57;5.40;;;1.73;;
20734;SDS011;10528;52.124;5.196;2024-01-15T07:13:24;6.72;;;1.63;;
20734;SDS011;10528;52.124;5.196;2024-01-15T07:15:51;4.50;;;1.17;;
20734;SDS011;10528;52.124;5.196;2024-01-15T07:18:18;6.50;;;1.90;;
20734;SDS011;10528;52.124;5.196;2024-01-15T07:20:45;6.82;;;2.65;;
20734;SDS011;10528;52.124;5.196;2024-01-15T07:23:12;6.28;;;3.00;;
20734;SDS011;10528;52.124;5.196;2024-01-15T07:25:39;4.18;;;1.30;;
20734;SDS011;10528;52.124;5.196;2024-01-15T07:28:05;4.85;;;1.00;;
20734;SDS011;10528;52.124;5.196;2024-01-15T07:30:33;6.15;;;1.20;;
20734;SDS011;10528;52.124;5.196;2024-01-15T07:33:00;6.10;;;1.20;;
20734;SDS011;10528;52.124;5.196;2024-01-15T07:35:27;4.93;;;1.33;;
20734;SDS011;10528;52.124;5.196;2024-01-15T07:37:54;4.53;;;1.67;;
20734;SDS011;10528;52.124;5.196;2024-01-15T07:40:21;5.32;;;1.77;;
20734;SDS011;10528;52.124;5.196;2024-01-15T07:42:48;7.30;;;2.83;;
20734;SDS011;10528;52.124;5.196;2024-01-15T07:45:15;6.97;;;3.33;;
20734;SDS011;10528;52.124;5.196;2024-01-15T07:47:42;7.00;;;2.35;;
20734;SDS011;10528;52.124;5.196;2024-01-15T07:50:10;7.35;;;1.73;;
20734;SDS011;10528;52.124;5.196;2024-01-15T07:52:39;6.18;;;1.70;;
20734;SDS011;10528;52.124;5.196;2024-01-15T07:55:08;7.15;;;1.90;;
20734;SDS011;10528;52.124;5.196;2024-01-15T07:57:35;6.80;;;1.60;;
20734;SDS011;10528;52.124;5.196;2024-01-15T08:00:05;7.10;;;1.70;;
20734;SDS011;10528;52.124;5.196;2024-01-15T08:02:33;8.30;;;1.77;;
20734;SDS011;10528;52.124;5.196;2024-01-15T08:05:03;8.48;;;1.67;;
20734;SDS011;10528;52.124;5.196;2024-01-15T08:07:30;4.07;;;1.80;;
20734;SDS011;10528;52.124;5.196;2024-01-15T08:09:57;6.68;;;2.90;;
20734;SDS011;10528;52.124;5.196;2024-01-15T08:12:25;4.90;;;1.98;;
20734;SDS011;10528;52.124;5.196;2024-01-15T08:14:52;9.02;;;2.42;;
20734;SDS011;10528;52.124;5.196;2024-01-15T08:17:19;6.15;;;2.50;;
20734;SDS011;10528;52.124;5.196;2024-01-15T08:19:46;6.97;;;2.33;;
20734;SDS011;10528;52.124;5.196;2024-01-15T08:22:13;4.13;;;1.88;;
20734;SDS011;10528;52.124;5.196;2024-01-15T08:24:40;12.98;;;2.42;;
20734;SDS011;10528;52.124;5.196;2024-01-15T08:27:07;7.75;;;1.80;;
20734;SDS011;10528;52.124;5.196;2024-01-15T08:29:34;5.88;;;1.60;;
20734;SDS011;10528;52.124;5.196;2024-01-15T08:32:01;9.32;;;1.92;;
20734;SDS011;10528;52.124;5.196;2024-01-15T08:34:28;6.50;;;1.73;;
20734;SDS011;10528;52.124;5.196;2024-01-15T08:36:57;3.97;;;1.60;;
20734;SDS011;10528;52.124;5.196;2024-01-15T08:39:24;5.55;;;1.70;;
20734;SDS011;10528;52.124;5.196;2024-01-15T08:41:51;6.47;;;2.17;;
20734;SDS011;10528;52.124;5.196;2024-01-15T08:44:18;11.68;;;2.20;;
20734;SDS011;10528;52.124;5.196;2024-01-15T08:46:45;6.53;;;1.77;;
20734;SDS011;10528;52.124;5.196;2024-01-15T08:49:12;10.88;;;3.47;;
20734;SDS011;10528;52.124;5.196;2024-01-15T08:51:40;13.93;;;5.65;;
20734;SDS011;10528;52.124;5.196;2024-01-15T08:54:07;15.88;;;5.10;;
20734;SDS011;10528;52.124;5.196;2024-01-15T08:56:34;6.97;;;3.05;;
20734;SDS011;10528;52.124;5.196;2024-01-15T08:59:01;6.07;;;2.00;;
20734;SDS011;10528;52.124;5.196;2024-01-15T09:01:28;5.07;;;2.08;;
20734;SDS011;10528;52.124;5.196;2024-01-15T09:03:56;9.20;;;2.47;;
20734;SDS011;10528;52.124;5.196;2024-01-15T09:06:23;7.40;;;1.42;;
20734;SDS011;10528;52.124;5.196;2024-01-15T09:08:50;2.78;;;1.27;;
20734;SDS011;10528;52.124;5.196;2024-01-15T09:11:17;7.57;;;1.02;;
20734;SDS011;10528;52.124;5.196;2024-01-15T09:13:44;5.10;;;1.15;;
20734;SDS011;10528;52.124;5.196;2024-01-15T09:16:10;5.55;;;1.00;;
20734;SDS011;10528;52.124;5.196;2024-01-15T09:18:37;4.35;;;1.05;;
20734;SDS011;10528;52.124;5.196;2024-01-15T09:21:05;7.75;;;1.52;;
20734;SDS011;10528;52.124;5.196;2024-01-15T09:23:31;2.72;;;1.10;;
20734;SDS011;10528;52.124;5.196;2024-01-15T09:25:58;3.78;;;1.15;;
20734;SDS011;10528;52.124;5.196;2024-01-15T09:28:25;4.43;;;1.00;;
20734;SDS011;10528;52.124;5.196;2024-01-15T09:30:52;6.30;;;1.30;;
20734;SDS011;10528;52.124;5.196;2024-01-15T09:33:19;6.63;;;1.48;;
20734;SDS011;10528;52.124;5.196;2024-01-15T09:35:46;3.10;;;1.02;;
20734;SDS011;10528;52.124;5.196;2024-01-15T09:38:13;3.97;;;1.10;;
20734;SDS011;10528;52.124;5.196;2024-01-15T09:40:40;5.60;;;1.42;;
20734;SDS011;10528;52.124;5.196;2024-01-15T09:43:12;4.60;;;1.30;;
20734;SDS011;10528;52.124;5.196;2024-01-15T09:45:41;5.90;;;1.58;;
20734;SDS011;10528;52.124;5.196;2024-01-15T09:48:09;8.90;;;1.75;;
20734;SDS011;10528;52.124;5.196;2024-01-15T09:50:37;4.70;;;1.48;;
20734;SDS011;10528;52.124;5.196;2024-01-15T09:53:05;9.70;;;2.17;;
20734;SDS011;10528;52.124;5.196;2024-01-15T09:55:32;5.78;;;1.70;;
20734;SDS011;10528;52.124;5.196;2024-01-15T09:57:59;6.55;;;1.77;;
20734;SDS011;10528;52.124;5.196;2024-01-15T10:00:28;8.32;;;2.58;;
20734;SDS011;10528;52.124;5.196;2024-01-15T10:02:59;5.85;;;1.77;;
20734;SDS011;10528;52.124;5.196;2024-01-15T10:05:29;13.77;;;3.95;;
20734;SDS011;10528;52.124;5.196;2024-01-15T10:07:56;9.43;;;3.03;;
20734;SDS011;10528;52.124;5.196;2024-01-15T10:10:24;9.38;;;2.65;;
20734;SDS011;10528;52.124;5.196;2024-01-15T10:12:51;14.77;;;3.35;;
20734;SDS011;10528;52.124;5.196;2024-01-15T10:15:25;22.10;;;4.93;;
20734;SDS011;10528;52.124;5.196;2024-01-15T10:17:53;35.58;;;9.10;;
20734;SDS011;10528;52.124;5.196;2024-01-15T10:20:21;14.68;;;4.80;;
20734;SDS011;10528;52.124;5.196;2024-01-15T10:22:51;22.48;;;7.70;;
20734;SDS011;10528;52.124;5.196;2024-01-15T10:25:17;15.32;;;5.43;;
20734;SDS011;10528;52.124;5.196;2024-01-15T10:28:03;14.00;;;3.78;;
20734;SDS011;10528;52.124;5.196;2024-01-15T10:30:34;7.78;;;1.90;;
20734;SDS011;10528;52.124;5.196;2024-01-15T10:33:02;10.20;;;1.75;;
20734;SDS011;10528;52.124;5.196;2024-01-15T10:35:32;6.25;;;1.40;;
20734;SDS011;10528;52.124;5.196;2024-01-15T10:38:01;9.77;;;1.90;;
20734;SDS011;10528;52.124;5.196;2024-01-15T10:40:29;6.38;;;1.80;;
20734;SDS011;10528;52.124;5.196;2024-01-15T10:42:58;7.50;;;1.98;;
20734;SDS011;10528;52.124;5.196;2024-01-15T10:45:25;8.95;;;1.67;;
20734;SDS011;10528;52.124;5.196;2024-01-15T10:47:53;8.73;;;2.65;;
20734;SDS011;10528;52.124;5.196;2024-01-15T10:50:21;5.25;;;2.13;;
20734;SDS011;10528;52.124;5.196;2024-01-15T10:52:48;5.85;;;1.75;;
20734;SDS011;10528;52.124;5.196;2024-01-15T10:55:16;5.80;;;1.30;;
20734;SDS011;10528;52.124;5.196;2024-01-15T10:57:45;11.55;;;2.88;;
20734;SDS011;10528;52.124;5.196;2024-01-15T11:00:16;9.75;;;3.53;;
20734;SDS011;10528;52.124;5.196;2024-01-15T11:02:44;7.65;;;1.73;;
20734;SDS011;10528;52.124;5.196;2024-01-15T11:05:11;5.85;;;1.63;;
20734;SDS011;10528;52.124;5.196;2024-01-15T11:07:39;4.53;;;1.25;;
20734;SDS011;10528;52.124;5.196;2024-01-15T11:10:07;11.38;;;3.05;;
20734;SDS011;10528;52.124;5.196;2024-01-15T11:13:09;5.47;;;1.50;;
20734;SDS011;10528;52.124;5.196;2024-01-15T11:16:03;6.72;;;1.30;;
20734;SDS011;10528;52.124;5.196;2024-01-15T11:18:39;5.30;;;0.90;;
20734;SDS011;10528;52.124;5.196;2024-01-15T11:23:53;5.75;;;0.90;;
20734;SDS011;10528;52.124;5.196;2024-01-15T11:26:30;2.40;;;0.93;;
20734;SDS011;10528;52.124;5.196;2024-01-15T11:32:06;2.70;;;0.80;;
20734;SDS011;10528;52.124;5.196;2024-01-15T11:34:54;5.35;;;1.10;;
20734;SDS011;10528;52.124;5.196;2024-01-15T11:37:56;4.43;;;1.25;;
20734;SDS011;10528;52.124;5.196;2024-01-15T11:40:24;6.25;;;1.70;;
20734;SDS011;10528;52.124;5.196;2024-01-15T11:43:08;5.38;;;1.30;;
20734;SDS011;10528;52.124;5.196;2024-01-15T11:45:36;5.38;;;1.30;;
20734;SDS011;10528;52.124;5.196;2024-01-15T11:50:46;4.78;;;1.17;;
20734;SDS011;10528;52.124;5.196;2024-01-15T11:53:17;3.20;;;1.00;;
20734;SDS011;10528;52.124;5.196;2024-01-15T11:56:18;4.97;;;1.00;;
20734;SDS011;10528;52.124;5.196;2024-01-15T11:58:49;6.93;;;1.73;;
20734;SDS011;10528;52.124;5.196;2024-01-15T12:01:17;4.50;;;1.58;;
20734;SDS011;10528;52.124;5.196;2024-01-15T12:03:47;4.00;;;1.42;;
20734;SDS011;10528;52.124;5.196;2024-01-15T12:06:14;7.32;;;1.52;;
20734;SDS011;10528;52.124;5.196;2024-01-15T12:08:41;5.97;;;1.67;;
20734;SDS011;10528;52.124;5.196;2024-01-15T12:11:10;6.68;;;2.30;;
20734;SDS011;10528;52.124;5.196;2024-01-15T12:13:42;6.22;;;2.20;;
20734;SDS011;10528;52.124;5.196;2024-01-15T12:16:09;8.13;;;2.35;;
20734;SDS011;10528;52.124;5.196;2024-01-15T12:18:36;9.63;;;2.88;;
20734;SDS011;10528;52.124;5.196;2024-01-15T12:21:04;7.70;;;2.60;;
20734;SDS011;10528;52.124;5.196;2024-01-15T12:23:30;9.82;;;3.38;;
20734;SDS011;10528;52.124;5.196;2024-01-15T12:25:58;9.68;;;3.13;;
20734;SDS011;10528;52.124;5.196;2024-01-15T12:28:27;8.85;;;2.65;;
20734;SDS011;10528;52.124;5.196;2024-01-15T12:30:55;7.57;;;2.33;;
20734;SDS011;10528;52.124;5.196;2024-01-15T12:33:22;11.05;;;3.25;;
20734;SDS011;10528;52.124;5.196;2024-01-15T12:35:52;7.68;;;2.40;;
20734;SDS011;10528;52.124;5.196;2024-01-15T12:38:19;8.50;;;2.35;;
20734;SDS011;10528;52.124;5.196;2024-01-15T12:40:47;4.25;;;1.77;;
20734;SDS011;10528;52.124;5.196;2024-01-15T12:43:15;7.03;;;1.23;;
20734;SDS011;10528;52.124;5.196;2024-01-15T12:45:41;7.72;;;1.30;;
20734;SDS011;10528;52.124;5.196;2024-01-15T12:48:09;3.05;;;1.05;;
20734;SDS011;10528;52.124;5.196;2024-01-15T12:50:36;3.42;;;0.90;;
20734;SDS011;10528;52.124;5.196;2024-01-15T12:53:03;2.92;;;1.00;;
20734;SDS011;10528;52.124;5.196;2024-01-15T12:55:31;8.10;;;3.35;;
20734;SDS011;10528;52.124;5.196;2024-01-15T12:57:57;5.05;;;1.30;;
20734;SDS011;10528;52.124;5.196;2024-01-15T13:00:24;10.93;;;5.32;;
20734;SDS011;10528;52.124;5.196;2024-01-15T13:02:52;3.63;;;1.60;;
20734;SDS011;10528;52.124;5.196;2024-01-15T13:05:21;16.83;;;5.72;;
20734;SDS011;10528;52.124;5.196;2024-01-15T13:07:49;11.55;;;3.38;;
20734;SDS011;10528;52.124;5.196;2024-01-15T13:10:16;8.50;;;1.50;;
20734;SDS011;10528;52.124;5.196;2024-01-15T13:12:43;9.85;;;2.38;;
20734;SDS011;10528;52.124;5.196;2024-01-15T13:15:11;8.15;;;1.55;;
20734;SDS011;10528;52.124;5.196;2024-01-15T13:17:40;8.25;;;2.30;;
20734;SDS011;10528;52.124;5.196;2024-01-15T13:20:08;9.05;;;1.55;;
20734;SDS011;10528;52.124;5.196;2024-01-15T13:22:37;8.85;;;1.42;;
20734;SDS011;10528;52.124;5.196;2024-01-15T13:25:06;8.95;;;1.60;;
20734;SDS011;10528;52.124;5.196;2024-01-15T13:27:34;8.98;;;1.50;;
20734;SDS011;10528;52.124;5.196;2024-01-15T13:30:02;6.20;;;1.13;;
20734;SDS011;10528;52.124;5.196;2024-01-15T13:32:34;5.88;;;1.25;;
20734;SDS011;10528;52.124;5.196;2024-01-15T13:35:02;6.97;;;1.35;;
20734;SDS011;10528;52.124;5.196;2024-01-15T13:37:32;8.48;;;1.10;;
20734;SDS011;10528;52.124;5.196;2024-01-15T13:39:59;6.10;;;1.20;;
20734;SDS011;10528;52.124;5.196;2024-01-15T13:42:27;9.10;;;1.58;;
20734;SDS011;10528;52.124;5.196;2024-01-15T13:44:54;10.50;;;3.13;;
20734;SDS011;10528;52.124;5.196;2024-01-15T13:47:21;9.13;;;1.63;;
20734;SDS011;10528;52.124;5.196;2024-01-15T13:49:48;8.70;;;1.60;;
20734;SDS011;10528;52.124;5.196;2024-01-15T13:52:15;6.63;;;1.45;;
20734;SDS011;10528;52.124;5.196;2024-01-15T13:54:44;9.32;;;1.33;;
20734;SDS011;10528;52.124;5.196;2024-01-15T13:57:16;7.07;;;1.70;;
20734;SDS011;10528;52.124;5.196;2024-01-15T13:59:45;5.55;;;1.50;;
20734;SDS011;10528;52.124;5.196;2024-01-15T14:02:12;8.77;;;1.58;;
20734;SDS011;10528;52.124;5.196;2024-01-15T14:04:46;8.20;;;1.63;;
20734;SDS011;10528;52.124;5.196;2024-01-15T14:07:15;6.38;;;1.10;;
20734;SDS011;10528;52.124;5.196;2024-01-15T14:09:43;7.40;;;2.03;;
20734;SDS011;10528;52.124;5.196;2024-01-15T14:12:09;8.95;;;1.88;;
20734;SDS011;10528;52.124;5.196;2024-01-15T14:14:38;7.05;;;1.40;;
20734;SDS011;10528;52.124;5.196;2024-01-15T14:17:05;9.95;;;2.15;;
20734;SDS011;10528;52.124;5.196;2024-01-15T14:19:32;6.28;;;2.17;;
20734;SDS011;10528;52.124;5.196;2024-01-15T14:21:59;8.30;;;2.35;;
20734;SDS011;10528;52.124;5.196;2024-01-15T14:24:26;5.93;;;1.42;;
20734;SDS011;10528;52.124;5.196;2024-01-15T14:26:53;8.57;;;2.42;;
20734;SDS011;10528;52.124;5.196;2024-01-15T14:29:20;12.18;;;3.55;;
20734;SDS011;10528;52.124;5.196;2024-01-15T14:31:49;16.67;;;4.68;;
20734;SDS011;10528;52.124;5.196;2024-01-15T14:34:16;11.18;;;3.63;;
20734;SDS011;10528;52.124;5.196;2024-01-15T14:36:44;10.43;;;2.92;;
20734;SDS011;10528;52.124;5.196;2024-01-15T14:39:13;10.65;;;2.80;;
20734;SDS011;10528;52.124;5.196;2024-01-15T14:41:40;9.10;;;2.10;;
20734;SDS011;10528;52.124;5.196;2024-01-15T14:44:07;10.90;;;2.35;;
20734;SDS011;10528;52.124;5.196;2024-01-15T14:46:34;11.38;;;1.65;;
20734;SDS011;10528;52.124;5.196;2024-01-15T14:49:01;11.32;;;2.17;;
20734;SDS011;10528;52.124;5.196;2024-01-15T14:51:28;8.38;;;1.98;;
20734;SDS011;10528;52.124;5.196;2024-01-15T14:53:56;8.05;;;1.42;;
20734;SDS011;10528;52.124;5.196;2024-01-15T14:56:23;7.82;;;1.70;;
20734;SDS011;10528;52.124;5.196;2024-01-15T14:58:50;9.00;;;2.03;;